sensor_id;sensor_type;location;lat;lon;timestamp;P1;durP1;ratioP1;P2;durP2;ratioP2
69716;SDS011;67420;46.144;19.666;2023-11-21T00:09:52;14.80;;;10.18;;
69716;SDS011;67420;46.144;19.666;2023-11-21T00:19:57;15.35;;;9.90;;
69716;SDS011;67420;46.144;19.666;2023-11-21T00:29:58;16.67;;;9.60;;
69716;SDS011;67420;46.144;19.666;2023-11-21T00:40:00;13.40;;;8.60;;
69716;SDS011;67420;46.144;19.666;2023-11-21T00:50:06;11.65;;;8.13;;
69716;SDS011;67420;46.144;19.666;2023-11-21T01:00:09;12.88;;;8.20;;
69716;SDS011;67420;46.144;19.666;2023-11-21T01:10:15;14.77;;;9.00;;
69716;SDS011;67420;46.144;19.666;2023-11-21T01:20:18;15.45;;;9.27;;
69716;SDS011;67420;46.144;19.666;2023-11-21T01:30:20;12.63;;;8.65;;
69716;SDS011;67420;46.144;19.666;2023-11-21T01:40:23;11.95;;;8.50;;
69716;SDS011;67420;46.144;19.666;2023-11-21T01:50:25;11.15;;;7.82;;
69716;SDS011;67420;46.144;19.666;2023-11-21T02:00:27;11.98;;;7.90;;
69716;SDS011;67420;46.144;19.666;2023-11-21T02:10:31;12.60;;;8.07;;
69716;SDS011;67420;46.144;19.666;2023-11-21T02:20:33;11.15;;;7.50;;
69716;SDS011;67420;46.144;19.666;2023-11-21T02:30:36;10.73;;;8.18;;
69716;SDS011;67420;46.144;19.666;2023-11-21T02:40:38;12.95;;;9.27;;
69716;SDS011;67420;46.144;19.666;2023-11-21T02:50:40;15.35;;;10.70;;
69716;SDS011;67420;46.144;19.666;2023-11-21T03:00:43;17.27;;;11.68;;
69716;SDS011;67420;46.144;19.666;2023-11-21T03:10:46;19.33;;;12.82;;
69716;SDS011;67420;46.144;19.666;2023-11-21T03:20:47;22.13;;;14.00;;
69716;SDS011;67420;46.144;19.666;2023-11-21T03:30:49;20.50;;;13.93;;
69716;SDS011;67420;46.144;19.666;2023-11-21T03:40:51;21.23;;;14.13;;
69716;SDS011;67420;46.144;19.666;2023-11-21T03:50:53;21.70;;;15.30;;
69716;SDS011;67420;46.144;19.666;2023-11-21T04:00:55;20.58;;;15.10;;
69716;SDS011;67420;46.144;19.666;2023-11-21T04:10:56;22.85;;;15.07;;
69716;SDS011;67420;46.144;19.666;2023-11-21T04:20:59;25.95;;;15.48;;
69716;SDS011;67420;46.144;19.666;2023-11-21T04:31:01;20.67;;;15.18;;
69716;SDS011;67420;46.144;19.666;2023-11-21T04:41:03;23.98;;;15.45;;
69716;SDS011;67420;46.144;19.666;2023-11-21T04:51:05;20.63;;;14.40;;
69716;SDS011;67420;46.144;19.666;2023-11-21T05:01:07;20.98;;;15.20;;
69716;SDS011;67420;46.144;19.666;2023-11-21T05:11:10;22.48;;;15.50;;
69716;SDS011;67420;46.144;19.666;2023-11-21T05:21:12;22.48;;;14.88;;
69716;SDS011;67420;46.144;19.666;2023-11-21T05:31:14;22.83;;;16.45;;
69716;SDS011;67420;46.144;19.666;2023-11-21T05:41:17;20.83;;;14.63;;
69716;SDS011;67420;46.144;19.666;2023-11-21T05:51:19;21.02;;;14.93;;
69716;SDS011;67420;46.144;19.666;2023-11-21T06:01:21;22.67;;;15.18;;
69716;SDS011;67420;46.144;19.666;2023-11-21T06:11:23;20.65;;;15.07;;
69716;SDS011;67420;46.144;19.666;2023-11-21T06:21:25;23.02;;;16.08;;
69716;SDS011;67420;46.144;19.666;2023-11-21T06:31:27;18.80;;;14.55;;
69716;SDS011;67420;46.144;19.666;2023-11-21T06:41:34;19.27;;;13.30;;
69716;SDS011;67420;46.144;19.666;2023-11-21T06:51:36;18.45;;;13.55;;
69716;SDS011;67420;46.144;19.666;2023-11-21T07:01:38;19.55;;;13.35;;
69716;SDS011;67420;46.144;19.666;2023-11-21T07:11:42;16.33;;;12.40;;
69716;SDS011;67420;46.144;19.666;2023-11-21T07:21:44;16.67;;;12.18;;
69716;SDS011;67420;46.144;19.666;2023-11-21T07:31:46;14.23;;;11.13;;
69716;SDS011;67420;46.144;19.666;2023-11-21T07:41:48;12.55;;;10.00;;
69716;SDS011;67420;46.144;19.666;2023-11-21T07:51:51;18.10;;;10.27;;
69716;SDS011;67420;46.144;19.666;2023-11-21T08:01:54;12.25;;;9.55;;
69716;SDS011;67420;46.144;19.666;2023-11-21T08:11:56;11.25;;;8.50;;
69716;SDS011;67420;46.144;19.666;2023-11-21T08:21:58;10.20;;;7.95;;
69716;SDS011;67420;46.144;19.666;2023-11-21T08:32:00;9.15;;;7.78;;
69716;SDS011;67420;46.144;19.666;2023-11-21T08:42:02;10.27;;;7.85;;
69716;SDS011;67420;46.144;19.666;2023-11-21T08:52:05;9.30;;;7.60;;
69716;SDS011;67420;46.144;19.666;2023-11-21T09:02:07;9.52;;;6.80;;
69716;SDS011;67420;46.144;19.666;2023-11-21T09:12:10;8.65;;;6.50;;
69716;SDS011;67420;46.144;19.666;2023-11-21T09:22:13;8.23;;;5.78;;
69716;SDS011;67420;46.144;19.666;2023-11-21T09:32:15;7.30;;;5.60;;
69716;SDS011;67420;46.144;19.666;2023-11-21T09:42:23;6.22;;;5.03;;
69716;SDS011;67420;46.144;19.666;2023-11-21T09:52:28;6.75;;;5.03;;
69716;SDS011;67420;46.144;19.666;2023-11-21T10:02:30;5.32;;;4.18;;
69716;SDS011;67420;46.144;19.666;2023-11-21T10:12:39;8.87;;;4.20;;
69716;SDS011;67420;46.144;19.666;2023-11-21T10:22:43;4.35;;;3.75;;
69716;SDS011;67420;46.144;19.666;2023-11-21T10:32:46;5.13;;;3.50;;
69716;SDS011;67420;46.144;19.666;2023-11-21T10:42:48;4.18;;;3.33;;
69716;SDS011;67420;46.144;19.666;2023-11-21T10:52:52;4.40;;;3.10;;
69716;SDS011;67420;46.144;19.666;2023-11-21T11:02:54;4.13;;;2.63;;
69716;SDS011;67420;46.144;19.666;2023-11-21T11:12:57;4.50;;;2.60;;
69716;SDS011;67420;46.144;19.666;2023-11-21T11:54:55;2.08;;;1.70;;
69716;SDS011;67420;46.144;19.666;2023-11-21T12:04:57;2.55;;;1.88;;
69716;SDS011;67420;46.144;19.666;2023-11-21T12:14:58;1.92;;;1.70;;
69716;SDS011;67420;46.144;19.666;2023-11-21T12:25:01;2.50;;;1.50;;
69716;SDS011;67420;46.144;19.666;2023-11-21T12:35:03;2.88;;;1.52;;
69716;SDS011;67420;46.144;19.666;2023-11-21T12:55:21;1.75;;;1.55;;
69716;SDS011;67420;46.144;19.666;2023-11-21T13:05:28;2.17;;;1.33;;
69716;SDS011;67420;46.144;19.666;2023-11-21T13:15:31;1.80;;;1.52;;
69716;SDS011;67420;46.144;19.666;2023-11-21T13:25:34;2.15;;;1.60;;
69716;SDS011;67420;46.144;19.666;2023-11-21T13:35:38;2.03;;;1.52;;
69716;SDS011;67420;46.144;19.666;2023-11-21T13:45:44;2.40;;;1.60;;
69716;SDS011;67420;46.144;19.666;2023-11-21T13:55:47;1.65;;;1.52;;
69716;SDS011;67420;46.144;19.666;2023-11-21T14:05:50;2.28;;;1.60;;
69716;SDS011;67420;46.144;19.666;2023-11-21T14:15:52;2.28;;;1.50;;
69716;SDS011;67420;46.144;19.666;2023-11-21T14:26:01;1.50;;;1.37;;
69716;SDS011;67420;46.144;19.666;2023-11-21T14:36:05;1.60;;;1.30;;
69716;SDS011;67420;46.144;19.666;2023-11-21T14:46:10;1.63;;;1.50;;
69716;SDS011;67420;46.144;19.666;2023-11-21T14:56:17;2.08;;;1.40;;
69716;SDS011;67420;46.144;19.666;2023-11-21T15:06:27;1.50;;;1.35;;
69716;SDS011;67420;46.144;19.666;2023-11-21T15:16:31;5.55;;;1.90;;
69716;SDS011;67420;46.144;19.666;2023-11-21T15:26:33;2.85;;;1.70;;
69716;SDS011;67420;46.144;19.666;2023-11-21T15:36:35;3.45;;;1.80;;
69716;SDS011;67420;46.144;19.666;2023-11-21T15:46:38;3.70;;;2.00;;
69716;SDS011;67420;46.144;19.666;2023-11-21T15:56:42;4.45;;;2.08;;
69716;SDS011;67420;46.144;19.666;2023-11-21T16:06:46;2.80;;;1.60;;
69716;SDS011;67420;46.144;19.666;2023-11-21T16:16:49;2.25;;;1.50;;
69716;SDS011;67420;46.144;19.666;2023-11-21T16:26:51;2.40;;;1.70;;
69716;SDS011;67420;46.144;19.666;2023-11-21T16:36:56;2.30;;;1.88;;
69716;SDS011;67420;46.144;19.666;2023-11-21T16:46:58;3.90;;;1.73;;
69716;SDS011;67420;46.144;19.666;2023-11-21T16:57:07;2.35;;;1.70;;
69716;SDS011;67420;46.144;19.666;2023-11-21T17:07:10;2.42;;;1.70;;
69716;SDS011;67420;46.144;19.666;2023-11-21T17:17:13;2.42;;;1.85;;
69716;SDS011;67420;46.144;19.666;2023-11-21T17:27:16;2.40;;;1.80;;
69716;SDS011;67420;46.144;19.666;2023-11-21T17:37:18;5.30;;;2.20;;
69716;SDS011;67420;46.144;19.666;2023-11-21T17:47:20;2.10;;;1.83;;
69716;SDS011;67420;46.144;19.666;2023-11-21T17:57:26;4.05;;;2.08;;
69716;SDS011;67420;46.144;19.666;2023-11-21T18:07:28;2.35;;;1.88;;
69716;SDS011;67420;46.144;19.666;2023-11-21T18:17:30;2.30;;;1.65;;
69716;SDS011;67420;46.144;19.666;2023-11-21T18:27:33;2.63;;;1.83;;
69716;SDS011;67420;46.144;19.666;2023-11-21T18:37:37;2.65;;;1.60;;
69716;SDS011;67420;46.144;19.666;2023-11-21T18:47:38;2.20;;;1.90;;
69716;SDS011;67420;46.144;19.666;2023-11-21T18:57:40;4.10;;;2.03;;
69716;SDS011;67420;46.144;19.666;2023-11-21T19:07:42;4.15;;;1.92;;
69716;SDS011;67420;46.144;19.666;2023-11-21T19:17:44;4.13;;;2.03;;
69716;SDS011;67420;46.144;19.666;2023-11-21T19:27:46;5.65;;;2.05;;
69716;SDS011;67420;46.144;19.666;2023-11-21T19:37:49;2.90;;;1.88;;
69716;SDS011;67420;46.144;19.666;2023-11-21T19:47:54;4.18;;;2.28;;
69716;SDS011;67420;46.144;19.666;2023-11-21T19:57:56;3.28;;;2.33;;
69716;SDS011;67420;46.144;19.666;2023-11-21T20:07:57;4.38;;;2.17;;
69716;SDS011;67420;46.144;19.666;2023-11-21T20:18:01;2.97;;;1.92;;
69716;SDS011;67420;46.144;19.666;2023-11-21T20:28:03;3.15;;;1.90;;
69716;SDS011;67420;46.144;19.666;2023-11-21T20:38:06;2.97;;;1.80;;
69716;SDS011;67420;46.144;19.666;2023-11-21T20:48:09;2.67;;;1.90;;
69716;SDS011;67420;46.144;19.666;2023-11-21T20:58:13;4.13;;;1.90;;
69716;SDS011;67420;46.144;19.666;2023-11-21T21:08:15;3.70;;;1.85;;
69716;SDS011;67420;46.144;19.666;2023-11-21T21:18:17;4.38;;;2.00;;
69716;SDS011;67420;46.144;19.666;2023-11-21T21:28:19;6.20;;;2.08;;
69716;SDS011;67420;46.144;19.666;2023-11-21T21:38:21;4.78;;;2.03;;
69716;SDS011;67420;46.144;19.666;2023-11-21T21:48:23;13.23;;;2.13;;
69716;SDS011;67420;46.144;19.666;2023-11-21T21:58:26;4.75;;;1.98;;
69716;SDS011;67420;46.144;19.666;2023-11-21T22:08:27;5.00;;;2.20;;
69716;SDS011;67420;46.144;19.666;2023-11-21T22:18:30;13.98;;;2.47;;
69716;SDS011;67420;46.144;19.666;2023-11-21T22:28:32;4.05;;;2.20;;
69716;SDS011;67420;46.144;19.666;2023-11-21T22:38:35;2.65;;;2.10;;
69716;SDS011;67420;46.144;19.666;2023-11-21T22:48:37;10.43;;;3.20;;
69716;SDS011;67420;46.144;19.666;2023-11-21T22:58:39;5.50;;;2.47;;
69716;SDS011;67420;46.144;19.666;2023-11-21T23:08:40;4.38;;;2.33;;
69716;SDS011;67420;46.144;19.666;2023-11-21T23:18:43;3.38;;;2.50;;
69716;SDS011;67420;46.144;19.666;2023-11-21T23:28:50;3.55;;;2.40;;
69716;SDS011;67420;46.144;19.666;2023-11-21T23:38:52;4.40;;;2.60;;
69716;SDS011;67420;46.144;19.666;2023-11-21T23:48:54;3.83;;;2.50;;
69716;SDS011;67420;46.144;19.666;2023-11-21T23:58:56;2.90;;;2.60;;
